Time;durP1;ratioP1;P1;durP2;ratioP2;P2;SDS_P1;SDS_P2;PMS_P1;PMS_P2;Temp;Humidity;BMP_temperature;BMP_pressure;BME280_temperature;BME280_humidity;BME280_pressure;Samples;Min_cycle;Max_cycle;Signal;HPM_P1;HPM_P2
2023/11/24 00:02:18;;;;;;;3.47;0.60;;;7.20;99.90;7.00;99174.00;;;;4952216;28;104750;-69
2023/11/24 00:04:43;;;;;;;1.07;1.00;;;7.10;99.90;7.00;99150.00;;;;4956289;28;87864;-70
2023/11/24 00:07:10;;;;;;;4.97;1.43;;;7.10;99.90;7.00;99164.00;;;;4951863;28;102236;-70
2023/11/24 00:09:35;;;;;;;4.47;0.77;;;7.10;99.90;7.00;99191.00;;;;4954551;28;88464;-69
2023/11/24 00:12:01;;;;;;;3.57;0.90;;;7.10;99.90;7.00;99189.00;;;;4954542;28;116564;-70
2023/11/24 00:14:27;;;;;;;2.50;1.00;;;7.10;99.90;7.00;99191.00;;;;4954592;28;94724;-68
2023/11/24 00:16:59;;;;;;;4.90;0.87;;;7.10;99.90;7.00;99186.00;;;;4947972;28;108696;-68
2023/11/24 00:19:25;;;;;;;4.43;1.07;;;7.20;99.90;7.00;99184.00;;;;4954035;28;87244;-69
2023/11/24 00:21:51;;;;;;;2.00;0.93;;;7.70;99.90;7.00;99204.00;;;;4952282;28;115006;-68
2023/11/24 00:24:17;;;;;;;4.33;0.57;;;7.10;99.90;7.00;99174.00;;;;4952360;28;87705;-70
2023/11/24 00:26:42;;;;;;;3.47;1.00;;;7.10;99.90;7.00;99173.00;;;;4953245;28;88648;-69
2023/11/24 00:29:08;;;;;;;8.23;0.90;;;7.20;99.90;7.00;99182.00;;;;4946033;28;118201;-67
2023/11/24 00:31:34;;;;;;;4.27;0.90;;;7.10;99.90;7.00;99197.00;;;;4950334;28;99822;-70
2023/11/24 00:34:03;;;;;;;2.53;0.97;;;7.10;99.90;7.00;99194.00;;;;4949601;28;110145;-68
2023/11/24 00:36:29;;;;;;;5.00;0.70;;;7.10;99.90;7.00;99181.00;;;;4951795;28;87810;-69
2023/11/24 00:38:55;;;;;;;2.23;1.47;;;7.10;99.90;7.00;99196.00;;;;4950081;28;88070;-69
2023/11/24 00:41:21;;;;;;;1.83;0.80;;;7.10;99.90;7.00;99175.00;;;;4952991;28;87994;-69
2023/11/24 00:43:47;;;;;;;2.90;1.33;;;7.10;99.90;7.00;99181.00;;;;4959630;28;110229;-68
2023/11/24 00:46:13;;;;;;;2.50;0.60;;;7.10;99.90;7.00;99204.00;;;;4954612;28;91621;-67
2023/11/24 00:48:40;;;;;;;3.77;0.50;;;7.60;99.90;7.00;99202.00;;;;4951424;28;89286;-68
2023/11/24 00:51:07;;;;;;;1.43;0.73;;;7.20;99.90;7.00;99209.00;;;;4957728;28;89348;-69
2023/11/24 00:53:33;;;;;;;0.83;0.57;;;7.20;99.90;7.10;99207.00;;;;4949543;28;88829;-68
2023/11/24 00:56:00;;;;;;;6.13;1.00;;;7.20;99.90;7.10;99194.00;;;;4946578;28;87965;-69
2023/11/24 00:58:25;;;;;;;2.03;0.80;;;7.20;99.90;7.10;99190.00;;;;4952526;28;88201;-68
2023/11/24 01:00:53;;;;;;;3.73;1.07;;;7.20;99.90;7.10;99189.00;;;;4959381;28;116361;-70
2023/11/24 01:03:18;;;;;;;7.40;0.93;;;7.20;99.90;7.10;99168.00;;;;4955504;28;87798;-69
2023/11/24 01:05:44;;;;;;;0.93;0.50;;;7.20;99.90;7.10;99173.00;;;;4950785;28;108484;-68
2023/11/24 01:08:10;;;;;;;4.33;1.13;;;7.20;99.90;7.10;99170.00;;;;4950848;28;90639;-67
2023/11/24 01:10:36;;;;;;;2.47;0.90;;;7.20;99.90;7.10;99194.00;;;;4951024;28;116180;-66
2023/11/24 01:13:01;;;;;;;3.60;0.67;;;7.90;99.90;7.10;99188.00;;;;4952248;28;87939;-67
2023/11/24 01:15:27;;;;;;;3.60;0.93;;;7.30;99.90;7.10;99188.00;;;;4948564;28;88833;-67
2023/11/24 01:17:54;;;;;;;1.80;0.60;;;7.20;99.90;7.10;99180.00;;;;4951919;28;116153;-66
2023/11/24 01:20:21;;;;;;;3.20;1.07;;;7.20;99.90;7.00;99173.00;;;;4948795;28;92421;-66
2023/11/24 01:22:48;;;;;;;5.30;0.70;;;7.20;99.90;7.00;99177.00;;;;4954957;28;87982;-67
2023/11/24 01:25:14;;;;;;;3.37;1.07;;;7.20;99.90;7.00;99183.00;;;;4955642;28;88368;-68
2023/11/24 01:27:40;;;;;;;3.10;0.90;;;7.20;99.90;7.00;99179.00;;;;4952057;28;116269;-68
2023/11/24 01:30:08;;;;;;;2.57;0.70;;;7.50;99.90;7.00;99180.00;;;;4949380;28;89753;-68
2023/11/24 01:32:34;;;;;;;1.13;0.70;;;7.20;99.90;7.00;99180.00;;;;4953126;28;91782;-66
2023/11/24 01:35:04;;;;;;;2.27;0.60;;;7.20;99.90;7.00;99176.00;;;;4953374;28;107965;-67
2023/11/24 01:37:29;;;;;;;5.23;1.47;;;7.20;99.90;7.00;99166.00;;;;4952550;28;89126;-68
2023/11/24 01:39:55;;;;;;;2.20;0.67;;;7.40;99.90;7.00;99167.00;;;;4947408;28;118446;-68
2023/11/24 01:42:21;;;;;;;1.13;0.73;;;7.20;99.90;6.90;99169.00;;;;4951994;28;87648;-67
2023/11/24 01:44:47;;;;;;;2.13;0.57;;;7.10;99.90;6.90;99164.00;;;;4952576;28;102059;-67
2023/11/24 01:47:13;;;;;;;3.43;0.60;;;7.10;99.90;6.80;99152.00;;;;4953530;28;88414;-66
2023/11/24 01:49:39;;;;;;;4.13;1.07;;;7.10;99.90;6.70;99137.00;;;;4953840;28;116147;-68
2023/11/24 01:52:06;;;;;;;13.77;1.40;;;7.10;99.90;6.70;99152.00;;;;4950478;28;87866;-66
2023/11/24 01:54:37;;;;;;;1.30;0.80;;;6.90;99.90;6.60;99160.00;;;;4956333;28;97367;-66
2023/11/24 01:57:07;;;;;;;2.53;0.40;;;6.80;99.90;6.50;99186.00;;;;4948863;28;101760;-66
2023/11/24 01:59:34;;;;;;;6.53;1.47;;;6.70;99.90;6.40;99179.00;;;;4952031;28;88145;-67
2023/11/24 02:02:00;;;;;;;2.33;0.97;;;6.60;99.90;6.40;99176.00;;;;4950115;28;88130;-66
2023/11/24 02:04:26;;;;;;;0.73;0.73;;;6.60;99.90;6.30;99192.00;;;;4949533;28;108916;-66
2023/11/24 02:06:53;;;;;;;1.47;0.77;;;6.80;99.90;6.30;99179.00;;;;4952998;28;116663;-66
2023/11/24 02:09:19;;;;;;;1.37;0.67;;;6.50;99.90;6.20;99188.00;;;;4954416;28;87991;-68
2023/11/24 02:11:44;;;;;;;1.13;0.70;;;6.40;99.90;6.10;99180.00;;;;4951886;28;110056;-67
2023/11/24 02:14:10;;;;;;;1.57;1.03;;;6.40;99.90;6.10;99177.00;;;;4951220;28;87729;-68
2023/11/24 02:16:36;;;;;;;4.07;1.37;;;6.30;99.90;6.10;99182.00;;;;4953866;28;118240;-68
2023/11/24 02:19:02;;;;;;;1.90;0.63;;;6.20;99.90;6.00;99189.00;;;;4955361;28;117416;-69
2023/11/24 02:21:28;;;;;;;2.50;0.70;;;6.20;99.90;6.00;99203.00;;;;4950366;28;88750;-68
2023/11/24 02:23:54;;;;;;;11.77;1.47;;;6.20;99.90;5.90;99187.00;;;;4951188;28;109902;-68
2023/11/24 02:26:19;;;;;;;7.17;1.37;;;6.20;99.90;5.80;99183.00;;;;4950343;28;117403;-68
2023/11/24 02:28:45;;;;;;;2.00;0.87;;;6.50;99.90;5.80;99195.00;;;;4953622;28;91093;-67
2023/11/24 02:31:11;;;;;;;1.37;1.27;;;6.00;99.90;5.80;99180.00;;;;4927099;28;89268;-68
2023/11/24 02:33:40;;;;;;;1.57;1.20;;;6.40;99.90;5.80;99191.00;;;;4948726;28;87770;-69
2023/11/24 02:36:16;;;;;;;2.97;0.87;;;6.50;99.90;5.80;99199.00;;;;4948373;28;88904;-68
2023/11/24 02:38:46;;;;;;;3.37;0.80;;;6.00;99.90;5.80;99187.00;;;;4953876;28;88063;-67
2023/11/24 02:41:15;;;;;;;8.37;1.23;;;6.00;99.90;5.80;99193.00;;;;4947416;28;87745;-68
2023/11/24 02:43:40;;;;;;;2.93;0.57;;;6.60;99.90;5.70;99190.00;;;;4955578;28;88325;-68
2023/11/24 02:46:15;;;;;;;5.47;1.00;;;5.90;99.90;5.70;99196.00;;;;4947988;28;107134;-67
2023/11/24 02:48:43;;;;;;;3.23;0.97;;;6.00;99.90;5.70;99201.00;;;;4952240;28;117005;-67
2023/11/24 02:51:09;;;;;;;4.63;1.13;;;6.40;99.90;5.70;99205.00;;;;4952463;28;87751;-68
2023/11/24 02:53:37;;;;;;;0.67;0.50;;;5.90;99.90;5.70;99178.00;;;;4951350;28;88795;-67
2023/11/24 02:56:04;;;;;;;5.80;0.90;;;6.40;99.90;5.80;99189.00;;;;4943560;28;87849;-69
2023/11/24 02:58:31;;;;;;;1.13;0.70;;;6.00;99.90;5.80;99176.00;;;;4957125;28;89434;-70
2023/11/24 03:00:58;;;;;;;0.97;0.87;;;5.90;99.90;5.80;99191.00;;;;4950260;28;88512;-67
2023/11/24 03:03:26;;;;;;;2.23;0.77;;;6.10;99.90;5.80;99204.00;;;;4951521;28;89030;-69
2023/11/24 03:05:51;;;;;;;1.83;1.10;;;5.90;99.90;5.80;99199.00;;;;4952955;28;88809;-69
2023/11/24 03:08:19;;;;;;;3.17;1.23;;;6.50;99.90;5.80;99201.00;;;;4957862;28;116657;-69
2023/11/24 03:10:49;;;;;;;2.40;1.33;;;6.50;99.90;5.90;99188.00;;;;4960456;28;86972;-68
2023/11/24 03:13:14;;;;;;;3.27;1.60;;;6.00;99.90;5.90;99182.00;;;;4956173;28;87743;-69
2023/11/24 03:15:40;;;;;;;1.03;0.60;;;6.80;99.90;6.00;99165.00;;;;4954034;28;90002;-68
2023/11/24 03:18:08;;;;;;;2.93;0.73;;;6.10;99.90;6.00;99175.00;;;;4944241;28;104516;-67
2023/11/24 03:20:34;;;;;;;5.07;1.23;;;6.20;99.90;6.10;99164.00;;;;4953097;28;87793;-68
2023/11/24 03:23:00;;;;;;;1.77;0.90;;;6.20;99.90;6.10;99176.00;;;;4950772;28;109676;-69
2023/11/24 03:25:25;;;;;;;1.53;0.53;;;6.30;99.90;6.10;99156.00;;;;4956998;28;117462;-67
2023/11/24 03:27:51;;;;;;;0.80;0.77;;;6.60;99.90;6.10;99149.00;;;;4955164;28;88676;-69
2023/11/24 03:30:17;;;;;;;5.73;1.37;;;6.20;99.90;6.10;99151.00;;;;4952065;28;111368;-67
2023/11/24 03:32:43;;;;;;;4.63;1.03;;;6.30;99.90;6.00;99165.00;;;;4950235;28;109904;-68
2023/11/24 03:35:09;;;;;;;6.70;0.87;;;6.20;99.90;6.00;99174.00;;;;4949966;28;87791;-68
2023/11/24 03:37:35;;;;;;;3.27;1.27;;;6.10;99.90;5.90;99175.00;;;;4955014;28;87678;-67
2023/11/24 03:40:01;;;;;;;2.43;0.77;;;6.50;99.90;5.90;99164.00;;;;4957217;28;87733;-68
2023/11/24 03:42:27;;;;;;;1.33;0.80;;;6.70;99.90;5.80;99177.00;;;;4953235;28;109716;-68
2023/11/24 03:44:53;;;;;;;2.03;0.80;;;6.00;99.90;5.80;99174.00;;;;4951814;28;88316;-68
2023/11/24 03:47:19;;;;;;;2.57;1.17;;;5.90;99.90;5.80;99168.00;;;;4950259;28;118140;-67
2023/11/24 03:49:45;;;;;;;5.07;0.97;;;6.60;99.90;5.80;99168.00;;;;4952413;28;87877;-67
2023/11/24 03:52:11;;;;;;;1.57;0.60;;;6.00;99.90;5.90;99176.00;;;;4949744;28;88035;-68
2023/11/24 03:54:36;;;;;;;2.97;0.67;;;6.00;99.90;5.80;99163.00;;;;4956654;28;87924;-68
2023/11/24 03:57:02;;;;;;;1.90;0.70;;;6.80;99.90;5.80;99161.00;;;;4949766;28;116036;-67
2023/11/24 03:59:28;;;;;;;0.93;0.40;;;6.10;99.90;5.80;99165.00;;;;4953670;28;88233;-69
2023/11/24 04:01:53;;;;;;;4.37;0.87;;;5.90;99.90;5.80;99170.00;;;;4953938;28;108419;-69
2023/11/24 04:04:19;;;;;;;3.03;0.77;;;6.50;99.90;5.80;99174.00;;;;4949414;28;117295;-68
2023/11/24 04:06:51;;;;;;;4.00;1.07;;;6.00;99.90;5.90;99150.00;;;;4951617;28;116538;-67
2023/11/24 04:09:16;;;;;;;7.03;1.17;;;6.00;99.90;5.90;99144.00;;;;4950253;28;110269;-67
2023/11/24 04:11:42;;;;;;;1.07;0.70;;;6.10;99.90;5.90;99158.00;;;;4951021;28;109365;-68
2023/11/24 04:14:08;;;;;;;1.67;1.03;;;6.50;99.90;5.90;99153.00;;;;4953815;28;88268;-68
2023/11/24 04:16:34;;;;;;;4.33;1.00;;;6.70;99.90;6.00;99166.00;;;;4951548;28;87958;-68
2023/11/24 04:18:59;;;;;;;2.47;0.97;;;6.10;99.90;6.00;99160.00;;;;4953024;28;110472;-71
2023/11/24 04:21:25;;;;;;;4.03;2.00;;;6.10;99.90;5.90;99153.00;;;;4950780;28;107844;-69
2023/11/24 04:23:51;;;;;;;2.83;0.83;;;6.30;99.90;5.80;99144.00;;;;4954288;28;115242;-69
2023/11/24 04:26:16;;;;;;;1.90;1.17;;;6.10;99.90;5.70;99134.00;;;;4948366;28;89167;-71
2023/11/24 04:28:42;;;;;;;0.73;0.57;;;5.90;99.90;5.60;99137.00;;;;4952355;28;95550;-71
2023/11/24 04:31:08;;;;;;;1.87;0.90;;;6.10;99.90;5.60;99140.00;;;;4948823;28;104783;-69
2023/11/24 04:33:33;;;;;;;0.93;0.70;;;6.20;99.90;5.50;99142.00;;;;4949255;28;117254;-69
2023/11/24 04:35:59;;;;;;;3.30;0.97;;;5.70;99.90;5.50;99138.00;;;;4954728;28;117388;-70
2023/11/24 04:38:24;;;;;;;3.00;1.00;;;6.40;99.90;5.50;99131.00;;;;4954734;28;111486;-70
2023/11/24 04:40:50;;;;;;;2.17;0.87;;;6.10;99.90;5.50;99127.00;;;;4952594;28;109138;-69
2023/11/24 04:43:16;;;;;;;1.87;0.93;;;5.70;99.90;5.50;99122.00;;;;4950144;28;116826;-70
2023/11/24 04:45:42;;;;;;;2.97;1.00;;;6.40;99.90;5.50;99114.00;;;;4957798;28;88283;-68
2023/11/24 04:48:07;;;;;;;5.70;1.23;;;6.20;99.90;5.50;99113.00;;;;4953822;28;87164;-68
2023/11/24 04:50:34;;;;;;;3.03;0.97;;;5.70;99.90;5.50;99110.00;;;;4951206;28;87846;-68
2023/11/24 04:53:02;;;;;;;4.23;1.90;;;6.40;99.90;5.50;99120.00;;;;4950379;28;88793;-68
2023/11/24 04:55:28;;;;;;;2.63;1.57;;;5.60;99.90;5.50;99120.00;;;;4955129;28;89446;-67
2023/11/24 04:57:54;;;;;;;5.97;1.30;;;6.20;99.90;5.50;99131.00;;;;4954073;28;89747;-68
2023/11/24 05:00:20;;;;;;;4.67;1.53;;;5.70;99.90;5.50;99127.00;;;;4949446;28;87829;-69
2023/11/24 05:02:46;;;;;;;7.90;1.20;;;5.70;99.90;5.50;99117.00;;;;4953774;28;115972;-68
2023/11/24 05:05:12;;;;;;;1.37;1.13;;;6.40;99.90;5.40;99107.00;;;;4951533;28;116841;-68
2023/11/24 05:07:37;;;;;;;3.97;1.37;;;5.80;99.90;5.40;99102.00;;;;4950606;28;111296;-67
2023/11/24 05:10:04;;;;;;;2.17;1.17;;;6.30;99.90;5.40;99124.00;;;;4951242;28;109607;-68
2023/11/24 05:12:30;;;;;;;4.30;1.43;;;5.60;99.90;5.40;99132.00;;;;4970763;28;87710;-67
2023/11/24 05:14:55;;;;;;;2.60;1.37;;;5.60;99.90;5.40;99124.00;;;;4950933;28;115699;-67
2023/11/24 05:17:21;;;;;;;2.00;1.03;;;5.60;99.90;5.40;99103.00;;;;4950612;28;109541;-69
2023/11/24 05:19:47;;;;;;;2.20;1.30;;;5.60;99.90;5.40;99121.00;;;;4950065;28;89371;-67
2023/11/24 05:22:13;;;;;;;2.33;1.00;;;5.60;99.90;5.40;99119.00;;;;4952324;28;117792;-73
2023/11/24 05:24:39;;;;;;;3.93;1.13;;;5.70;99.90;5.30;99119.00;;;;4948119;28;103660;-70
2023/11/24 05:27:06;;;;;;;2.53;1.40;;;5.50;99.90;5.10;99140.00;;;;4953109;28;87875;-70
2023/11/24 05:29:32;;;;;;;0.87;0.53;;;5.40;99.90;4.90;99132.00;;;;4950682;28;87811;-72
2023/11/24 05:31:58;;;;;;;2.00;0.63;;;5.20;99.90;4.80;99128.00;;;;4948230;28;89302;-68
2023/11/24 05:34:25;;;;;;;1.30;1.17;;;5.10;99.90;4.70;99126.00;;;;4947111;28;118280;-70
2023/11/24 05:36:51;;;;;;;0.70;0.70;;;5.60;99.90;4.60;99123.00;;;;4952730;28;88060;-69
2023/11/24 05:39:17;;;;;;;2.30;1.20;;;4.90;99.90;4.60;99113.00;;;;4952502;28;88004;-69
2023/11/24 05:41:44;;;;;;;1.07;0.70;;;4.90;99.90;4.60;99106.00;;;;4951849;28;117965;-69
2023/11/24 05:44:11;;;;;;;3.70;1.23;;;4.70;99.90;4.60;99115.00;;;;4949171;28;90385;-68
2023/11/24 05:46:38;;;;;;;1.87;1.07;;;5.50;99.90;4.70;99113.00;;;;4943473;28;87957;-68
2023/11/24 05:49:04;;;;;;;1.60;1.50;;;4.80;99.90;4.70;99107.00;;;;4945894;28;87955;-69
2023/11/24 05:51:30;;;;;;;8.83;1.30;;;4.90;99.90;4.80;99102.00;;;;4946552;28;109115;-70
2023/11/24 05:53:56;;;;;;;4.07;2.20;;;5.60;99.90;4.80;99100.00;;;;4943431;28;107852;-68
2023/11/24 05:56:21;;;;;;;3.60;1.20;;;5.80;99.90;4.80;99092.00;;;;4946790;28;110577;-74
2023/11/24 05:58:47;;;;;;;1.43;0.90;;;5.00;99.90;4.80;99092.00;;;;4943323;28;109484;-70
2023/11/24 06:01:13;;;;;;;1.07;0.70;;;5.00;99.90;4.80;99098.00;;;;4949070;28;91273;-70
2023/11/24 06:03:39;;;;;;;0.80;0.70;;;5.00;99.90;4.80;99080.00;;;;4949136;28;87815;-71
2023/11/24 06:06:06;;;;;;;4.63;0.73;;;5.00;99.90;4.70;99109.00;;;;4951739;28;87905;-72
2023/11/24 06:08:31;;;;;;;0.83;0.60;;;4.90;99.90;4.70;99120.00;;;;4954360;28;88729;-69
2023/11/24 06:10:57;;;;;;;6.20;0.77;;;4.90;99.90;4.60;99114.00;;;;4953011;28;115162;-71
2023/11/24 06:13:23;;;;;;;1.30;0.77;;;4.80;99.90;4.60;99115.00;;;;4952376;28;115295;-68
2023/11/24 06:15:48;;;;;;;2.37;0.50;;;4.70;99.90;4.50;99114.00;;;;4948797;28;108783;-68
2023/11/24 06:18:14;;;;;;;12.07;1.10;;;4.80;99.90;4.40;99104.00;;;;4952128;28;91940;-67
2023/11/24 06:20:40;;;;;;;1.20;0.87;;;4.60;99.90;4.30;99124.00;;;;4950514;28;88275;-68
2023/11/24 06:23:06;;;;;;;4.60;0.60;;;4.50;99.90;4.30;99118.00;;;;4951187;28;88149;-69
2023/11/24 06:25:31;;;;;;;2.10;0.90;;;4.50;99.90;4.20;99110.00;;;;4953581;28;110679;-70
2023/11/24 06:27:57;;;;;;;4.80;1.13;;;4.40;99.90;4.20;99112.00;;;;4951255;28;107913;-69
2023/11/24 06:30:23;;;;;;;3.03;0.93;;;4.40;99.90;4.20;99109.00;;;;4952414;28;116604;-69
2023/11/24 06:32:48;;;;;;;9.27;1.50;;;4.40;99.90;4.20;99102.00;;;;4948404;28;117648;-68
2023/11/24 06:35:15;;;;;;;1.30;0.60;;;4.40;99.90;4.20;99115.00;;;;4954223;28;110324;-69
2023/11/24 06:37:41;;;;;;;2.23;0.70;;;4.50;99.90;4.20;99119.00;;;;4952034;28;87806;-69
2023/11/24 06:40:11;;;;;;;1.40;0.93;;;4.90;99.90;4.20;99115.00;;;;4948579;28;116263;-68
2023/11/24 06:42:40;;;;;;;3.60;1.17;;;4.50;99.90;4.20;99119.00;;;;4949340;28;88658;-69
2023/11/24 06:45:12;;;;;;;0.63;0.60;;;4.40;99.90;4.10;99115.00;;;;4954118;28;88224;-68
2023/11/24 06:47:41;;;;;;;6.97;1.23;;;4.40;99.90;4.20;99111.00;;;;4949359;28;88326;-68
2023/11/24 06:53:48;;;;;;;2.67;1.23;;;4.40;99.90;4.20;99096.00;;;;4950843;28;88447;-70
2023/11/24 06:56:14;;;;;;;1.53;0.93;;;5.00;99.90;4.20;99099.00;;;;4953940;28;109537;-70
2023/11/24 06:58:42;;;;;;;0.70;0.70;;;5.00;99.90;4.20;99102.00;;;;4953879;28;89162;-69
2023/11/24 07:01:08;;;;;;;1.03;0.93;;;4.40;99.90;4.20;99095.00;;;;4950568;28;116673;-71
2023/11/24 07:03:33;;;;;;;1.03;0.53;;;4.40;99.90;4.30;99098.00;;;;4945828;28;116325;-70
2023/11/24 07:06:00;;;;;;;0.73;0.30;;;4.50;99.90;4.30;99104.00;;;;4950541;28;108292;-70
2023/11/24 07:08:27;;;;;;;0.53;0.50;;;4.50;99.90;4.30;99098.00;;;;4950544;28;88024;-69
2023/11/24 07:10:53;;;;;;;0.20;0.20;;;4.40;99.90;4.30;99103.00;;;;4959307;28;88006;-72
2023/11/24 07:13:20;;;;;;;3.50;0.50;;;4.50;99.90;4.30;99106.00;;;;4932089;28;102078;-70
2023/11/24 07:15:47;;;;;;;0.47;0.33;;;5.20;99.90;4.30;99117.00;;;;4949399;28;86852;-70
2023/11/24 07:18:14;;;;;;;0.70;0.50;;;4.50;99.90;4.30;99120.00;;;;4950633;28;88015;-69
2023/11/24 07:20:40;;;;;;;1.80;0.40;;;4.50;99.90;4.30;99114.00;;;;4954549;28;88791;-71
2023/11/24 07:23:05;;;;;;;2.97;0.60;;;4.50;99.90;4.30;99116.00;;;;4954964;28;117512;-68
2023/11/24 07:25:31;;;;;;;1.23;0.63;;;5.00;99.90;4.30;99113.00;;;;4950571;28;110631;-70
2023/11/24 07:27:56;;;;;;;1.37;0.50;;;4.50;99.90;4.30;99119.00;;;;4950969;28;108810;-69
2023/11/24 07:30:22;;;;;;;0.30;0.20;;;4.50;99.90;4.30;99116.00;;;;4951286;28;116576;-71
2023/11/24 07:32:50;;;;;;;0.80;0.50;;;4.60;99.90;4.30;99106.00;;;;4952582;28;88511;-69
2023/11/24 07:35:16;;;;;;;0.47;0.47;;;4.60;99.90;4.30;99096.00;;;;4952266;28;87691;-71
2023/11/24 07:37:42;;;;;;;1.20;0.60;;;4.50;99.90;4.30;99092.00;;;;4953137;28;88050;-71
2023/11/24 07:40:13;;;;;;;0.60;0.40;;;4.60;99.90;4.30;99106.00;;;;4947841;28;87504;-71
2023/11/24 07:42:43;;;;;;;1.90;0.60;;;4.50;99.90;4.30;99104.00;;;;4951347;28;88318;-72
2023/11/24 07:45:10;;;;;;;3.07;0.57;;;4.40;99.90;4.20;99088.00;;;;4949293;28;87598;-72
2023/11/24 07:47:36;;;;;;;1.53;0.60;;;4.50;99.90;4.20;99092.00;;;;4955601;28;88727;-72
2023/11/24 07:50:04;;;;;;;0.70;0.70;;;4.40;99.90;4.20;99091.00;;;;4953895;28;108741;-70
2023/11/24 07:52:30;;;;;;;3.13;0.30;;;4.40;99.90;4.10;99081.00;;;;4950910;28;88170;-69
2023/11/24 07:54:56;;;;;;;1.13;0.83;;;4.30;99.90;4.10;99088.00;;;;4952828;28;87725;-69
2023/11/24 07:57:24;;;;;;;6.33;1.03;;;4.30;99.90;4.10;99088.00;;;;4948865;28;111580;-69
2023/11/24 07:59:58;;;;;;;0.87;0.27;;;4.20;99.90;4.00;99102.00;;;;4953218;28;88733;-69
2023/11/24 08:02:25;;;;;;;0.57;0.57;;;4.30;99.90;4.00;99090.00;;;;4953017;28;88777;-72
2023/11/24 08:04:50;;;;;;;0.23;0.23;;;4.30;99.90;4.00;99093.00;;;;4960086;28;87028;-69
2023/11/24 08:07:19;;;;;;;0.23;0.20;;;4.40;99.90;4.00;99091.00;;;;4954686;28;108981;-69
2023/11/24 08:09:45;;;;;;;3.80;0.47;;;4.20;99.90;4.00;99098.00;;;;4954992;28;88285;-72
2023/11/24 08:12:11;;;;;;;0.47;0.47;;;4.20;99.90;4.00;99085.00;;;;4957490;28;89536;-70
2023/11/24 08:14:37;;;;;;;2.53;0.60;;;4.80;99.90;4.00;99085.00;;;;4953439;28;87814;-69
2023/11/24 08:17:04;;;;;;;3.27;1.10;;;4.20;99.90;4.00;99082.00;;;;4953138;28;87756;-71
2023/11/24 08:19:29;;;;;;;0.90;0.50;;;4.20;99.90;4.00;99081.00;;;;4949322;28;88891;-70
2023/11/24 08:21:55;;;;;;;1.03;0.90;;;4.60;99.90;3.90;99082.00;;;;4951824;28;118099;-72
2023/11/24 08:24:21;;;;;;;0.40;0.20;;;4.10;99.90;3.90;99069.00;;;;4950277;28;95486;-70
2023/11/24 08:26:47;;;;;;;2.47;0.50;;;4.10;99.90;3.90;99072.00;;;;4952955;28;87922;-69
2023/11/24 08:29:13;;;;;;;0.73;0.50;;;4.20;99.90;3.90;99068.00;;;;4952974;28;88096;-69
2023/11/24 08:31:44;;;;;;;0.80;0.40;;;4.10;99.90;3.90;99062.00;;;;4950937;28;88253;-72
2023/11/24 08:34:11;;;;;;;0.97;0.50;;;4.10;99.90;3.90;99072.00;;;;4952856;28;87790;-69
2023/11/24 08:36:36;;;;;;;1.23;0.83;;;4.10;99.90;3.90;99075.00;;;;4954135;28;89124;-69
2023/11/24 08:39:11;;;;;;;1.03;0.63;;;4.20;99.90;3.90;99068.00;;;;4956430;28;116833;-69
2023/11/24 08:41:38;;;;;;;0.17;0.17;;;4.10;99.90;4.00;99074.00;;;;4956982;28;88595;-71
2023/11/24 08:44:05;;;;;;;1.97;0.70;;;4.20;99.90;4.00;99087.00;;;;4954474;28;87871;-71
2023/11/24 08:46:31;;;;;;;0.47;0.40;;;4.20;99.90;4.00;99078.00;;;;4950444;28;87859;-73
2023/11/24 08:48:57;;;;;;;0.33;0.27;;;4.20;99.90;4.10;99068.00;;;;4950023;28;105024;-72
2023/11/24 08:51:23;;;;;;;1.70;0.43;;;4.30;99.90;4.10;99081.00;;;;4951705;28;88734;-72
2023/11/24 08:53:48;;;;;;;0.70;0.50;;;4.30;99.90;4.10;99069.00;;;;4952794;28;87053;-71
2023/11/24 08:56:14;;;;;;;3.37;0.73;;;4.40;99.90;4.20;99065.00;;;;4958457;28;108911;-72
2023/11/24 08:58:39;;;;;;;2.10;0.50;;;4.40;99.90;4.20;99053.00;;;;4953647;28;117130;-69
2023/11/24 09:01:06;;;;;;;4.50;1.53;;;4.40;99.90;4.20;99049.00;;;;4953626;28;116933;-70
2023/11/24 09:03:32;;;;;;;0.30;0.30;;;4.40;99.90;4.20;99050.00;;;;4953217;28;87948;-69
2023/11/24 09:05:57;;;;;;;0.47;0.47;;;4.50;99.90;4.20;99039.00;;;;4950888;28;108058;-71
2023/11/24 09:08:23;;;;;;;0.40;0.40;;;4.60;99.90;4.30;99037.00;;;;4951403;28;89343;-69
2023/11/24 09:10:49;;;;;;;0.20;0.20;;;5.00;99.90;4.30;99048.00;;;;4954184;28;102059;-73
2023/11/24 09:13:15;;;;;;;0.27;0.20;;;4.40;99.90;4.40;99028.00;;;;4949782;28;89464;-74
2023/11/24 09:15:42;;;;;;;0.40;0.40;;;4.50;99.90;4.40;99023.00;;;;4957607;28;88006;-71
2023/11/24 09:18:08;;;;;;;1.77;0.47;;;4.60;99.90;4.50;99023.00;;;;4955565;28;88852;-68
2023/11/24 09:20:34;;;;;;;0.33;0.20;;;4.60;99.90;4.60;99030.00;;;;4953611;28;87638;-71
2023/11/24 09:23:00;;;;;;;0.53;0.40;;;4.70;99.90;4.60;99019.00;;;;4956761;28;109883;-71
2023/11/24 09:25:26;;;;;;;2.93;0.60;;;4.80;99.90;4.60;99028.00;;;;4952254;28;109075;-70
2023/11/24 09:27:52;;;;;;;1.90;0.73;;;4.80;99.90;4.60;99012.00;;;;4956505;28;88185;-69
2023/11/24 09:30:18;;;;;;;1.20;0.63;;;5.00;99.90;4.60;99027.00;;;;4952902;28;88049;-69
2023/11/24 09:32:44;;;;;;;5.00;1.03;;;4.70;99.90;4.60;99041.00;;;;4953070;28;88355;-70
2023/11/24 09:35:10;;;;;;;1.90;0.83;;;4.80;99.90;4.60;99039.00;;;;4951994;28;87846;-69
2023/11/24 09:37:36;;;;;;;0.90;0.50;;;5.00;99.90;4.60;99033.00;;;;4951156;28;89255;-71
2023/11/24 09:40:04;;;;;;;1.60;0.43;;;4.80;99.90;4.60;99027.00;;;;4948602;28;105686;-72
2023/11/24 09:42:35;;;;;;;0.77;0.53;;;4.80;99.90;4.60;99025.00;;;;4953772;28;87041;-69
2023/11/24 09:45:08;;;;;;;0.73;0.40;;;4.80;99.90;4.60;99008.00;;;;4947779;28;100522;-69
2023/11/24 09:47:34;;;;;;;0.73;0.57;;;4.80;99.90;4.60;99015.00;;;;4956180;28;88390;-69
2023/11/24 09:50:02;;;;;;;0.97;0.30;;;4.80;99.90;4.60;98994.00;;;;4943026;28;111478;-70
2023/11/24 09:52:28;;;;;;;0.10;0.10;;;4.80;99.90;4.60;98995.00;;;;4950576;28;92198;-70
2023/11/24 09:54:59;;;;;;;0.20;0.20;;;5.20;99.90;4.50;98998.00;;;;4944113;28;94307;-69
2023/11/24 09:57:25;;;;;;;3.57;0.43;;;5.30;99.90;4.40;98990.00;;;;4948638;28;88245;-68
2023/11/24 09:59:51;;;;;;;1.47;0.50;;;5.30;99.90;4.50;98992.00;;;;4953363;28;88037;-69
2023/11/24 10:02:20;;;;;;;0.70;0.70;;;4.60;99.90;4.60;98994.00;;;;4949242;28;110520;-68
2023/11/24 10:04:51;;;;;;;0.70;0.67;;;4.70;99.90;4.80;98966.00;;;;4950268;28;88146;-70
2023/11/24 10:07:22;;;;;;;0.40;0.23;;;4.90;99.90;5.10;98958.00;;;;4946798;28;117661;-69
2023/11/24 10:09:49;;;;;;;0.30;0.30;;;5.10;99.90;5.40;98968.00;;;;4948978;28;88268;-69
2023/11/24 10:12:18;;;;;;;0.83;0.60;;;5.40;99.90;5.80;98958.00;;;;4940701;28;87884;-68
2023/11/24 10:14:44;;;;;;;1.50;0.80;;;5.80;99.90;6.00;98960.00;;;;4953072;28;88851;-69
2023/11/24 10:17:10;;;;;;;0.50;0.40;;;6.50;99.90;6.00;98955.00;;;;4950614;28;89044;-69
2023/11/24 10:19:36;;;;;;;1.77;0.97;;;6.10;99.90;6.00;98954.00;;;;4951817;28;117753;-69
2023/11/24 10:22:02;;;;;;;1.10;0.70;;;6.20;99.90;6.20;98963.00;;;;4958874;28;109481;-69
2023/11/24 10:24:37;;;;;;;1.00;0.63;;;6.40;99.90;6.20;98961.00;;;;4951188;28;88034;-72
2023/11/24 10:27:23;;;;;;;4.90;0.77;;;6.40;99.90;6.20;98944.00;;;;4953204;28;87857;-68
2023/11/24 10:29:50;;;;;;;1.73;0.50;;;6.40;99.90;6.20;98930.00;;;;4948932;28;87832;-70
2023/11/24 10:32:19;;;;;;;6.03;0.30;;;6.30;99.90;6.50;98947.00;;;;4953321;28;86937;-69
2023/11/24 10:34:46;;;;;;;0.40;0.33;;;6.50;99.90;6.80;98930.00;;;;4954221;28;87857;-69
2023/11/24 10:37:17;;;;;;;2.60;0.80;;;6.80;99.90;7.00;98935.00;;;;4950834;28;87984;-69
2023/11/24 10:39:47;;;;;;;1.20;0.33;;;7.20;99.90;7.30;98926.00;;;;4950091;28;89082;-69
2023/11/24 10:42:15;;;;;;;1.13;0.43;;;7.30;99.90;7.60;98927.00;;;;4952907;28;88134;-68
2023/11/24 10:44:42;;;;;;;1.03;0.67;;;7.60;99.90;7.70;98939.00;;;;4953261;28;88171;-68
2023/11/24 10:47:10;;;;;;;0.50;0.40;;;7.70;99.90;7.60;98919.00;;;;4952514;28;89569;-67
2023/11/24 10:49:46;;;;;;;1.90;0.57;;;7.80;99.90;7.50;98918.00;;;;4948395;28;88573;-69
2023/11/24 10:52:46;;;;;;;4.03;0.30;;;7.80;99.90;7.40;98914.00;;;;4955668;28;101174;-68
2023/11/24 10:55:15;;;;;;;0.10;0.10;;;7.60;99.90;7.50;98910.00;;;;4954152;28;89113;-68
2023/11/24 10:57:41;;;;;;;1.17;0.60;;;7.60;99.90;7.50;98895.00;;;;4949327;28;87678;-68
2023/11/24 11:00:08;;;;;;;1.13;0.43;;;7.70;99.90;7.50;98894.00;;;;4950977;28;87877;-69
2023/11/24 11:02:39;;;;;;;1.13;0.50;;;7.60;99.90;7.50;98897.00;;;;4948241;28;87946;-69
2023/11/24 11:06:04;;;;;;;1.70;0.47;;;7.60;99.90;7.50;98912.00;;;;4951574;28;88751;-68
2023/11/24 11:08:56;;;;;;;2.30;0.97;;;7.70;99.90;7.30;98910.00;;;;4900965;28;87965;-68
2023/11/24 11:12:13;;;;;;;0.73;0.30;;;7.50;99.90;7.30;98890.00;;;;4937704;28;88192;-68